Twr-7 — TWR-7 — position and weather

sailwx.info

Track history (hours):
 
Tides and Currents Weather Stations Pressure Air Temp Water Temp Dewpoint Dewpoint Depression Visibility Wind Speed Wind Dir Waves Ship Positions

Twr-7

Last reported at 2018-Feb-21 22:51 UTC. Time now 2018-Feb-23 13:02 UTC.
Position N 47°43' W 122°34'.

; draft 1.5 m.

Type: Military. MMSI: 369970258.

Date/timePositionNaut miles runAvg speedWind from/ knotsBaromVisibWave heightAir tempDewpointWater temp
2018-Feb-21 22:51N 47°43' W 122°34'513.7
2018-Feb-21 22:30N 47°45' W 122°28'816.7
2018-Feb-21 22:00N 47°54' W 122°30'3514.7
2018-Feb-21 19:38N 48°22' W 123°01'317.4
2018-Feb-21 19:28N 48°24' W 123°03'917.4
2018-Feb-21 18:58N 48°31' W 123°12'918.6
2018-Feb-21 18:30N 48°39' W 123°15'918.4
2018-Feb-21 18:00N 48°47' W 123°20'917.1
2018-Feb-21 17:29N 48°55' W 123°29'3214.8
2018-Feb-21 15:18N 49°16' W 124°06'  
Track history (hours):
 
Tides and Currents Weather Stations Pressure Air Temp Water Temp Dewpoint Dewpoint Depression Visibility Wind Speed Wind Dir Waves Ship Positions

Twr-7

Last reported at 2018-Feb-21 22:51 UTC. Time now 2018-Feb-23 13:02 UTC.
Position N 47°43' W 122°34'.

; draft 1.5 m.

Type: Military. MMSI: 369970258.

Date/timePositionNaut miles runAvg speedWind from/ knotsBaromVisibWave heightAir tempDewpointWater temp
2018-Feb-21 22:51N 47°43' W 122°34'513.7
2018-Feb-21 22:30N 47°45' W 122°28'816.7
2018-Feb-21 22:00N 47°54' W 122°30'3514.7
2018-Feb-21 19:38N 48°22' W 123°01'317.4
2018-Feb-21 19:28N 48°24' W 123°03'917.4
2018-Feb-21 18:58N 48°31' W 123°12'918.6
2018-Feb-21 18:30N 48°39' W 123°15'918.4
2018-Feb-21 18:00N 48°47' W 123°20'917.1
2018-Feb-21 17:29N 48°55' W 123°29'3214.8
2018-Feb-21 15:18N 49°16' W 124°06'  

Dump ship's entire track history